PH-0045 weather

Orient Square Heliport
Pasig, Philippines

Public forecast

Using degrees Celsius for public forecast. Weather courtesy of forecast.io.

METAR (pilot weather report)

Closest report is Ninoy Aquino International Airport, 5.2 nm (9.6 km) SSW. Retrieved 2019/07/22 20:00 UTC (2 minutes ago):

RPLL 222000Z 17002KT 8000 -RA SCT020 OVC080 27/25 Q1008 NOSIG RMK A2977

TAF (pilot weather forecast)

Closest forecast is Ninoy Aquino International Airport, 5.2 nm (9.6 km) SSW. Retrieved 2019/07/22 18:00 UTC (2 hours ago):

TAF RPLL 221700Z 2218/2324 26006KT 9999 FEW025 SCT100 BKN300 TX33/2306 TN26/2221Z TEMPO 2218/2224 32004KT 9000 -SHRA SCT022 OVC090 TEMPO 2306/2312 26012KT 8000 -TSRA FEW022CB SCT023 OVC090